sensor_id;sensor_type;location;lat;lon;timestamp;temperature;humidity
12872;DHT22;6504;53.766;9.626;2022-12-18T00:00:02;-4.70;99.90
12872;DHT22;6504;53.766;9.626;2022-12-18T00:02:32;-4.70;99.90
12872;DHT22;6504;53.766;9.626;2022-12-18T00:05:00;-4.70;99.90
12872;DHT22;6504;53.766;9.626;2022-12-18T00:07:28;-4.70;99.90
12872;DHT22;6504;53.766;9.626;2022-12-18T00:09:56;-4.70;99.90
12872;DHT22;6504;53.766;9.626;2022-12-18T00:12:24;-4.80;99.90
12872;DHT22;6504;53.766;9.626;2022-12-18T00:14:55;-4.70;99.90
12872;DHT22;6504;53.766;9.626;2022-12-18T00:17:24;-4.80;99.90
12872;DHT22;6504;53.766;9.626;2022-12-18T00:19:53;-4.70;99.90
12872;DHT22;6504;53.766;9.626;2022-12-18T00:22:21;-4.70;99.90
12872;DHT22;6504;53.766;9.626;2022-12-18T00:24:49;-4.80;99.90
12872;DHT22;6504;53.766;9.626;2022-12-18T00:27:17;-4.80;99.90
12872;DHT22;6504;53.766;9.626;2022-12-18T00:29:45;-4.80;99.90
12872;DHT22;6504;53.766;9.626;2022-12-18T00:32:13;-4.80;99.90
12872;DHT22;6504;53.766;9.626;2022-12-18T00:34:41;-4.80;99.90
12872;DHT22;6504;53.766;9.626;2022-12-18T00:37:11;-4.70;99.90
12872;DHT22;6504;53.766;9.626;2022-12-18T00:39:48;-4.70;99.90
12872;DHT22;6504;53.766;9.626;2022-12-18T00:42:16;-4.70;99.90
12872;DHT22;6504;53.766;9.626;2022-12-18T00:45:16;-4.70;99.90
12872;DHT22;6504;53.766;9.626;2022-12-18T00:47:44;-4.80;99.90
12872;DHT22;6504;53.766;9.626;2022-12-18T00:50:13;-4.80;99.90
12872;DHT22;6504;53.766;9.626;2022-12-18T00:52:42;-4.70;99.90
12872;DHT22;6504;53.766;9.626;2022-12-18T00:55:11;-4.80;99.90
12872;DHT22;6504;53.766;9.626;2022-12-18T00:57:40;-4.80;99.90
12872;DHT22;6504;53.766;9.626;2022-12-18T01:00:10;-4.80;99.90
12872;DHT22;6504;53.766;9.626;2022-12-18T01:02:39;-4.80;99.90
12872;DHT22;6504;53.766;9.626;2022-12-18T01:05:08;-4.80;99.90
12872;DHT22;6504;53.766;9.626;2022-12-18T01:07:36;-4.80;99.90
12872;DHT22;6504;53.766;9.626;2022-12-18T01:10:07;-4.80;99.90
12872;DHT22;6504;53.766;9.626;2022-12-18T01:12:35;-4.80;99.90
12872;DHT22;6504;53.766;9.626;2022-12-18T01:15:05;-4.80;99.90
12872;DHT22;6504;53.766;9.626;2022-12-18T01:17:33;-4.80;99.90
12872;DHT22;6504;53.766;9.626;2022-12-18T01:20:02;-4.80;99.90
12872;DHT22;6504;53.766;9.626;2022-12-18T01:22:30;-4.80;99.90
12872;DHT22;6504;53.766;9.626;2022-12-18T01:24:58;-4.80;99.90
12872;DHT22;6504;53.766;9.626;2022-12-18T01:27:28;-4.80;99.90
12872;DHT22;6504;53.766;9.626;2022-12-18T01:29:56;-4.70;99.90
12872;DHT22;6504;53.766;9.626;2022-12-18T01:32:24;-4.70;99.90
12872;DHT22;6504;53.766;9.626;2022-12-18T01:34:52;-4.70;99.90
12872;DHT22;6504;53.766;9.626;2022-12-18T01:37:20;-4.70;99.90
12872;DHT22;6504;53.766;9.626;2022-12-18T01:39:48;-4.70;99.90
12872;DHT22;6504;53.766;9.626;2022-12-18T01:42:17;-4.70;99.90
12872;DHT22;6504;53.766;9.626;2022-12-18T01:44:58;-4.80;99.90
12872;DHT22;6504;53.766;9.626;2022-12-18T01:47:32;-4.80;99.90
12872;DHT22;6504;53.766;9.626;2022-12-18T01:50:05;-4.80;99.90
12872;DHT22;6504;53.766;9.626;2022-12-18T01:52:36;-4.70;99.90
12872;DHT22;6504;53.766;9.626;2022-12-18T01:55:07;-4.70;99.90
12872;DHT22;6504;53.766;9.626;2022-12-18T01:57:37;-4.80;99.90
12872;DHT22;6504;53.766;9.626;2022-12-18T02:00:09;-4.70;99.90
12872;DHT22;6504;53.766;9.626;2022-12-18T02:02:38;-4.80;99.90
12872;DHT22;6504;53.766;9.626;2022-12-18T02:05:07;-4.80;99.90
12872;DHT22;6504;53.766;9.626;2022-12-18T02:07:43;-4.80;99.90
12872;DHT22;6504;53.766;9.626;2022-12-18T02:10:19;-4.80;99.90
12872;DHT22;6504;53.766;9.626;2022-12-18T02:12:52;-4.80;99.90
12872;DHT22;6504;53.766;9.626;2022-12-18T02:15:26;-4.90;99.90
12872;DHT22;6504;53.766;9.626;2022-12-18T02:18:04;-4.80;99.90
12872;DHT22;6504;53.766;9.626;2022-12-18T02:20:35;-4.80;99.90
12872;DHT22;6504;53.766;9.626;2022-12-18T02:23:12;-4.80;99.90
12872;DHT22;6504;53.766;9.626;2022-12-18T02:26:06;-4.80;99.90
12872;DHT22;6504;53.766;9.626;2022-12-18T02:28:40;-4.80;99.90
12872;DHT22;6504;53.766;9.626;2022-12-18T02:31:11;-4.80;99.90
12872;DHT22;6504;53.766;9.626;2022-12-18T02:33:42;-4.80;99.90
12872;DHT22;6504;53.766;9.626;2022-12-18T02:36:12;-4.80;99.90
12872;DHT22;6504;53.766;9.626;2022-12-18T02:38:42;-4.80;99.90
12872;DHT22;6504;53.766;9.626;2022-12-18T02:41:13;-4.90;99.90
12872;DHT22;6504;53.766;9.626;2022-12-18T02:43:46;-4.80;99.90
12872;DHT22;6504;53.766;9.626;2022-12-18T02:46:29;-4.80;99.90
12872;DHT22;6504;53.766;9.626;2022-12-18T02:49:14;-4.80;99.90
12872;DHT22;6504;53.766;9.626;2022-12-18T02:51:50;-4.80;99.90
12872;DHT22;6504;53.766;9.626;2022-12-18T02:54:36;-4.90;99.90
12872;DHT22;6504;53.766;9.626;2022-12-18T02:57:14;-4.90;99.90
12872;DHT22;6504;53.766;9.626;2022-12-18T02:59:49;-4.90;99.90
12872;DHT22;6504;53.766;9.626;2022-12-18T03:02:24;-4.80;99.90
12872;DHT22;6504;53.766;9.626;2022-12-18T03:05:00;-4.80;99.90
12872;DHT22;6504;53.766;9.626;2022-12-18T03:07:37;-4.80;99.90
12872;DHT22;6504;53.766;9.626;2022-12-18T03:10:08;-4.80;99.90
12872;DHT22;6504;53.766;9.626;2022-12-18T03:12:43;-4.80;99.90
12872;DHT22;6504;53.766;9.626;2022-12-18T03:15:14;-4.80;99.90
12872;DHT22;6504;53.766;9.626;2022-12-18T03:17:49;-4.80;99.90
12872;DHT22;6504;53.766;9.626;2022-12-18T03:20:20;-4.80;99.90
12872;DHT22;6504;53.766;9.626;2022-12-18T03:22:53;-4.80;99.90
12872;DHT22;6504;53.766;9.626;2022-12-18T03:25:22;-4.70;99.90
12872;DHT22;6504;53.766;9.626;2022-12-18T03:27:56;-4.80;99.90
12872;DHT22;6504;53.766;9.626;2022-12-18T03:30:26;-4.80;99.90
12872;DHT22;6504;53.766;9.626;2022-12-18T03:33:02;-4.90;99.90
12872;DHT22;6504;53.766;9.626;2022-12-18T03:35:35;-4.90;99.90
12872;DHT22;6504;53.766;9.626;2022-12-18T03:38:04;-4.90;99.90
12872;DHT22;6504;53.766;9.626;2022-12-18T03:40:41;-5.00;99.90
12872;DHT22;6504;53.766;9.626;2022-12-18T03:43:18;-4.90;99.90
12872;DHT22;6504;53.766;9.626;2022-12-18T03:45:53;-4.90;99.90
12872;DHT22;6504;53.766;9.626;2022-12-18T03:48:29;-4.90;99.90
12872;DHT22;6504;53.766;9.626;2022-12-18T03:51:03;-4.90;99.90
12872;DHT22;6504;53.766;9.626;2022-12-18T03:53:37;-4.90;99.90
12872;DHT22;6504;53.766;9.626;2022-12-18T03:56:07;-4.90;99.90
12872;DHT22;6504;53.766;9.626;2022-12-18T03:58:38;-4.90;99.90
12872;DHT22;6504;53.766;9.626;2022-12-18T04:01:08;-4.90;99.90
12872;DHT22;6504;53.766;9.626;2022-12-18T04:03:39;-4.90;99.90
12872;DHT22;6504;53.766;9.626;2022-12-18T04:06:10;-4.90;99.90
12872;DHT22;6504;53.766;9.626;2022-12-18T04:08:39;-4.90;99.90
12872;DHT22;6504;53.766;9.626;2022-12-18T04:11:08;-5.00;99.90
12872;DHT22;6504;53.766;9.626;2022-12-18T04:13:38;-4.90;99.90
12872;DHT22;6504;53.766;9.626;2022-12-18T04:16:07;-5.00;99.90
12872;DHT22;6504;53.766;9.626;2022-12-18T04:18:36;-5.00;99.90
12872;DHT22;6504;53.766;9.626;2022-12-18T04:21:05;-5.00;99.90
12872;DHT22;6504;53.766;9.626;2022-12-18T04:23:33;-5.00;99.90
12872;DHT22;6504;53.766;9.626;2022-12-18T04:26:01;-5.00;99.90
12872;DHT22;6504;53.766;9.626;2022-12-18T04:28:29;-5.00;99.90
12872;DHT22;6504;53.766;9.626;2022-12-18T04:30:59;-5.10;99.90
12872;DHT22;6504;53.766;9.626;2022-12-18T04:33:27;-5.10;99.90
12872;DHT22;6504;53.766;9.626;2022-12-18T04:35:55;-5.10;99.90
12872;DHT22;6504;53.766;9.626;2022-12-18T04:38:23;-5.10;99.90
12872;DHT22;6504;53.766;9.626;2022-12-18T04:40:51;-5.10;99.90
12872;DHT22;6504;53.766;9.626;2022-12-18T04:43:19;-5.10;99.90
12872;DHT22;6504;53.766;9.626;2022-12-18T04:45:47;-5.10;99.90
12872;DHT22;6504;53.766;9.626;2022-12-18T04:48:16;-5.10;99.90
12872;DHT22;6504;53.766;9.626;2022-12-18T04:50:45;-5.10;99.90
12872;DHT22;6504;53.766;9.626;2022-12-18T04:53:14;-5.10;99.90
12872;DHT22;6504;53.766;9.626;2022-12-18T04:55:42;-5.10;99.90
12872;DHT22;6504;53.766;9.626;2022-12-18T04:58:10;-5.10;99.90
12872;DHT22;6504;53.766;9.626;2022-12-18T05:00:38;-5.10;99.90
12872;DHT22;6504;53.766;9.626;2022-12-18T05:03:06;-5.10;99.90
12872;DHT22;6504;53.766;9.626;2022-12-18T05:05:35;-5.10;99.90
12872;DHT22;6504;53.766;9.626;2022-12-18T05:08:04;-5.10;99.90
12872;DHT22;6504;53.766;9.626;2022-12-18T05:10:32;-5.20;99.90
12872;DHT22;6504;53.766;9.626;2022-12-18T05:13:04;-5.10;99.90
12872;DHT22;6504;53.766;9.626;2022-12-18T05:15:33;-5.20;99.90
12872;DHT22;6504;53.766;9.626;2022-12-18T05:18:02;-5.20;99.90
12872;DHT22;6504;53.766;9.626;2022-12-18T05:20:30;-5.20;99.90
12872;DHT22;6504;53.766;9.626;2022-12-18T05:23:00;-5.20;99.90
12872;DHT22;6504;53.766;9.626;2022-12-18T05:25:28;-5.20;99.90
12872;DHT22;6504;53.766;9.626;2022-12-18T05:27:56;-5.20;99.90
12872;DHT22;6504;53.766;9.626;2022-12-18T05:30:25;-5.20;99.90
12872;DHT22;6504;53.766;9.626;2022-12-18T05:32:54;-5.20;99.90
12872;DHT22;6504;53.766;9.626;2022-12-18T05:35:22;-5.20;99.90
12872;DHT22;6504;53.766;9.626;2022-12-18T05:37:50;-5.20;99.90
12872;DHT22;6504;53.766;9.626;2022-12-18T05:40:19;-5.10;99.90
12872;DHT22;6504;53.766;9.626;2022-12-18T05:42:47;-5.10;99.90
12872;DHT22;6504;53.766;9.626;2022-12-18T05:45:16;-5.10;99.90
12872;DHT22;6504;53.766;9.626;2022-12-18T05:47:44;-5.00;99.90
12872;DHT22;6504;53.766;9.626;2022-12-18T05:50:12;-5.10;99.90
12872;DHT22;6504;53.766;9.626;2022-12-18T05:52:40;-5.10;99.90
12872;DHT22;6504;53.766;9.626;2022-12-18T05:55:08;-5.10;99.90
12872;DHT22;6504;53.766;9.626;2022-12-18T05:57:38;-5.10;99.90
12872;DHT22;6504;53.766;9.626;2022-12-18T06:00:07;-5.10;99.90
12872;DHT22;6504;53.766;9.626;2022-12-18T06:02:35;-5.20;99.90
12872;DHT22;6504;53.766;9.626;2022-12-18T06:05:04;-5.20;99.90
12872;DHT22;6504;53.766;9.626;2022-12-18T06:07:32;-5.20;99.90
12872;DHT22;6504;53.766;9.626;2022-12-18T06:10:00;-5.20;99.90
12872;DHT22;6504;53.766;9.626;2022-12-18T06:12:28;-5.20;99.90
12872;DHT22;6504;53.766;9.626;2022-12-18T06:14:58;-5.20;99.90
12872;DHT22;6504;53.766;9.626;2022-12-18T06:17:28;-5.20;99.90
12872;DHT22;6504;53.766;9.626;2022-12-18T06:19:56;-5.30;99.90
12872;DHT22;6504;53.766;9.626;2022-12-18T06:22:25;-5.30;99.90
12872;DHT22;6504;53.766;9.626;2022-12-18T06:24:53;-5.30;99.90
12872;DHT22;6504;53.766;9.626;2022-12-18T06:27:21;-5.30;99.90
12872;DHT22;6504;53.766;9.626;2022-12-18T06:29:49;-5.30;99.90
12872;DHT22;6504;53.766;9.626;2022-12-18T06:32:19;-5.30;99.90
12872;DHT22;6504;53.766;9.626;2022-12-18T06:34:47;-5.40;99.90
12872;DHT22;6504;53.766;9.626;2022-12-18T06:37:15;-5.30;99.90
12872;DHT22;6504;53.766;9.626;2022-12-18T06:39:43;-5.30;99.90
12872;DHT22;6504;53.766;9.626;2022-12-18T06:42:11;-5.30;99.90
12872;DHT22;6504;53.766;9.626;2022-12-18T06:44:39;-5.30;99.90
12872;DHT22;6504;53.766;9.626;2022-12-18T06:47:07;-5.30;99.90
12872;DHT22;6504;53.766;9.626;2022-12-18T06:49:36;-5.30;99.90
12872;DHT22;6504;53.766;9.626;2022-12-18T06:52:04;-5.30;99.90
12872;DHT22;6504;53.766;9.626;2022-12-18T06:54:32;-5.30;99.90
12872;DHT22;6504;53.766;9.626;2022-12-18T06:57:00;-5.30;99.90
12872;DHT22;6504;53.766;9.626;2022-12-18T06:59:28;-5.40;99.90
12872;DHT22;6504;53.766;9.626;2022-12-18T07:01:56;-5.30;99.90
12872;DHT22;6504;53.766;9.626;2022-12-18T07:04:28;-5.30;99.90
12872;DHT22;6504;53.766;9.626;2022-12-18T07:06:57;-5.30;99.90
12872;DHT22;6504;53.766;9.626;2022-12-18T07:09:25;-5.30;99.90
12872;DHT22;6504;53.766;9.626;2022-12-18T07:11:56;-5.30;99.90
12872;DHT22;6504;53.766;9.626;2022-12-18T07:14:25;-5.30;99.90
12872;DHT22;6504;53.766;9.626;2022-12-18T07:16:53;-5.30;99.90
12872;DHT22;6504;53.766;9.626;2022-12-18T07:19:22;-5.30;99.90
12872;DHT22;6504;53.766;9.626;2022-12-18T07:21:50;-5.30;99.90
12872;DHT22;6504;53.766;9.626;2022-12-18T07:24:20;-5.40;99.90
12872;DHT22;6504;53.766;9.626;2022-12-18T07:26:48;-5.40;99.90
12872;DHT22;6504;53.766;9.626;2022-12-18T07:29:16;-5.40;99.90
12872;DHT22;6504;53.766;9.626;2022-12-18T07:31:44;-5.40;99.90
12872;DHT22;6504;53.766;9.626;2022-12-18T07:34:13;-5.40;99.90
12872;DHT22;6504;53.766;9.626;2022-12-18T07:36:41;-5.40;99.90
12872;DHT22;6504;53.766;9.626;2022-12-18T07:39:10;-5.40;99.90
12872;DHT22;6504;53.766;9.626;2022-12-18T07:41:40;-5.40;99.90
12872;DHT22;6504;53.766;9.626;2022-12-18T07:44:13;-5.40;99.90
12872;DHT22;6504;53.766;9.626;2022-12-18T07:46:41;-5.50;99.90
12872;DHT22;6504;53.766;9.626;2022-12-18T07:49:09;-5.50;99.90
12872;DHT22;6504;53.766;9.626;2022-12-18T07:51:37;-5.60;99.90
12872;DHT22;6504;53.766;9.626;2022-12-18T07:54:06;-5.50;99.90
12872;DHT22;6504;53.766;9.626;2022-12-18T07:56:34;-5.50;99.90
12872;DHT22;6504;53.766;9.626;2022-12-18T07:59:04;-5.50;99.90
12872;DHT22;6504;53.766;9.626;2022-12-18T08:01:33;-5.50;99.90
12872;DHT22;6504;53.766;9.626;2022-12-18T08:04:01;-5.50;99.90
12872;DHT22;6504;53.766;9.626;2022-12-18T08:06:29;-5.60;99.90
12872;DHT22;6504;53.766;9.626;2022-12-18T08:08:57;-5.50;99.90
12872;DHT22;6504;53.766;9.626;2022-12-18T08:11:27;-5.60;99.90
12872;DHT22;6504;53.766;9.626;2022-12-18T08:13:55;-5.60;99.90
12872;DHT22;6504;53.766;9.626;2022-12-18T08:16:26;-5.60;99.90
12872;DHT22;6504;53.766;9.626;2022-12-18T08:18:54;-5.60;99.90
12872;DHT22;6504;53.766;9.626;2022-12-18T08:21:24;-5.60;99.90
12872;DHT22;6504;53.766;9.626;2022-12-18T08:23:54;-5.50;99.90
12872;DHT22;6504;53.766;9.626;2022-12-18T08:26:24;-5.50;99.90
12872;DHT22;6504;53.766;9.626;2022-12-18T08:28:53;-5.60;99.90
12872;DHT22;6504;53.766;9.626;2022-12-18T08:31:23;-5.50;99.90
12872;DHT22;6504;53.766;9.626;2022-12-18T08:33:53;-5.60;99.90
12872;DHT22;6504;53.766;9.626;2022-12-18T08:36:23;-5.60;99.90
12872;DHT22;6504;53.766;9.626;2022-12-18T08:38:53;-5.60;99.90
12872;DHT22;6504;53.766;9.626;2022-12-18T08:41:21;-5.60;99.90
12872;DHT22;6504;53.766;9.626;2022-12-18T08:43:50;-5.60;99.90
12872;DHT22;6504;53.766;9.626;2022-12-18T08:46:37;-5.60;99.90
12872;DHT22;6504;53.766;9.626;2022-12-18T08:49:08;-5.60;99.90
12872;DHT22;6504;53.766;9.626;2022-12-18T08:51:37;-5.60;99.90
12872;DHT22;6504;53.766;9.626;2022-12-18T08:54:06;-5.50;99.90
12872;DHT22;6504;53.766;9.626;2022-12-18T08:56:34;-5.50;99.90
12872;DHT22;6504;53.766;9.626;2022-12-18T08:59:02;-5.50;99.90
12872;DHT22;6504;53.766;9.626;2022-12-18T09:01:31;-5.50;99.90
12872;DHT22;6504;53.766;9.626;2022-12-18T09:04:00;-5.50;99.90
12872;DHT22;6504;53.766;9.626;2022-12-18T09:06:31;-5.50;99.90
12872;DHT22;6504;53.766;9.626;2022-12-18T09:08:59;-5.50;99.90
12872;DHT22;6504;53.766;9.626;2022-12-18T09:11:28;-5.50;99.90
12872;DHT22;6504;53.766;9.626;2022-12-18T09:14:01;-5.50;99.90
12872;DHT22;6504;53.766;9.626;2022-12-18T09:16:33;-5.50;99.90
12872;DHT22;6504;53.766;9.626;2022-12-18T09:19:07;-5.40;99.90
12872;DHT22;6504;53.766;9.626;2022-12-18T09:21:37;-5.40;99.90
12872;DHT22;6504;53.766;9.626;2022-12-18T09:24:13;-5.40;99.90
12872;DHT22;6504;53.766;9.626;2022-12-18T09:26:42;-5.40;99.90
12872;DHT22;6504;53.766;9.626;2022-12-18T09:29:13;-5.40;99.90
12872;DHT22;6504;53.766;9.626;2022-12-18T09:31:43;-5.40;99.90
12872;DHT22;6504;53.766;9.626;2022-12-18T09:34:11;-5.40;99.90
12872;DHT22;6504;53.766;9.626;2022-12-18T09:36:40;-5.30;99.90
12872;DHT22;6504;53.766;9.626;2022-12-18T09:39:09;-5.30;99.90
12872;DHT22;6504;53.766;9.626;2022-12-18T09:41:45;-5.30;99.90
12872;DHT22;6504;53.766;9.626;2022-12-18T09:44:20;-5.30;99.90
12872;DHT22;6504;53.766;9.626;2022-12-18T09:46:54;-5.30;99.90
12872;DHT22;6504;53.766;9.626;2022-12-18T09:49:28;-5.20;99.90
12872;DHT22;6504;53.766;9.626;2022-12-18T09:52:03;-5.20;99.90
12872;DHT22;6504;53.766;9.626;2022-12-18T09:54:35;-5.20;99.90
12872;DHT22;6504;53.766;9.626;2022-12-18T09:57:04;-5.10;99.90
12872;DHT22;6504;53.766;9.626;2022-12-18T09:59:36;-5.10;99.90
12872;DHT22;6504;53.766;9.626;2022-12-18T10:02:15;-5.10;99.90
12872;DHT22;6504;53.766;9.626;2022-12-18T10:04:46;-5.00;99.90
12872;DHT22;6504;53.766;9.626;2022-12-18T10:07:23;-5.00;99.90
12872;DHT22;6504;53.766;9.626;2022-12-18T10:09:59;-4.90;99.90
12872;DHT22;6504;53.766;9.626;2022-12-18T10:12:34;-4.90;99.90
12872;DHT22;6504;53.766;9.626;2022-12-18T10:15:13;-4.90;99.90
12872;DHT22;6504;53.766;9.626;2022-12-18T10:17:46;-4.80;99.90
12872;DHT22;6504;53.766;9.626;2022-12-18T10:20:24;-4.80;99.90
12872;DHT22;6504;53.766;9.626;2022-12-18T10:23:01;-4.70;99.90
12872;DHT22;6504;53.766;9.626;2022-12-18T10:25:36;-4.70;99.90
12872;DHT22;6504;53.766;9.626;2022-12-18T10:28:09;-4.60;99.90
12872;DHT22;6504;53.766;9.626;2022-12-18T10:30:39;-4.60;99.90
12872;DHT22;6504;53.766;9.626;2022-12-18T10:33:10;-4.50;99.90
12872;DHT22;6504;53.766;9.626;2022-12-18T10:35:41;-4.50;99.90
12872;DHT22;6504;53.766;9.626;2022-12-18T10:38:23;-4.50;99.90
12872;DHT22;6504;53.766;9.626;2022-12-18T10:40:54;-4.40;99.90
12872;DHT22;6504;53.766;9.626;2022-12-18T10:43:24;-4.40;99.90
12872;DHT22;6504;53.766;9.626;2022-12-18T10:46:11;-4.40;99.90
12872;DHT22;6504;53.766;9.626;2022-12-18T10:48:50;-4.30;99.90
12872;DHT22;6504;53.766;9.626;2022-12-18T10:51:21;-4.30;99.90
12872;DHT22;6504;53.766;9.626;2022-12-18T10:53:58;-4.20;99.90
12872;DHT22;6504;53.766;9.626;2022-12-18T10:56:30;-4.20;99.90
12872;DHT22;6504;53.766;9.626;2022-12-18T10:59:00;-4.10;99.90
12872;DHT22;6504;53.766;9.626;2022-12-18T11:01:45;-4.10;99.90
12872;DHT22;6504;53.766;9.626;2022-12-18T11:04:18;-4.00;99.90
12872;DHT22;6504;53.766;9.626;2022-12-18T11:06:56;-4.00;99.90
12872;DHT22;6504;53.766;9.626;2022-12-18T11:09:27;-3.90;99.90
12872;DHT22;6504;53.766;9.626;2022-12-18T11:12:01;-3.80;99.90
12872;DHT22;6504;53.766;9.626;2022-12-18T11:14:32;-3.80;99.90
12872;DHT22;6504;53.766;9.626;2022-12-18T11:17:01;-3.70;99.90
12872;DHT22;6504;53.766;9.626;2022-12-18T11:19:53;-3.60;99.90
12872;DHT22;6504;53.766;9.626;2022-12-18T11:22:25;-3.50;99.90
12872;DHT22;6504;53.766;9.626;2022-12-18T11:24:59;-3.50;99.90
12872;DHT22;6504;53.766;9.626;2022-12-18T11:27:50;-3.40;99.90
12872;DHT22;6504;53.766;9.626;2022-12-18T11:30:24;-3.40;99.90
12872;DHT22;6504;53.766;9.626;2022-12-18T11:32:57;-3.40;99.90
12872;DHT22;6504;53.766;9.626;2022-12-18T11:35:40;-3.30;99.90
12872;DHT22;6504;53.766;9.626;2022-12-18T11:38:17;-3.30;99.90
12872;DHT22;6504;53.766;9.626;2022-12-18T11:40:53;-3.30;99.90
12872;DHT22;6504;53.766;9.626;2022-12-18T11:43:27;-3.30;99.90
12872;DHT22;6504;53.766;9.626;2022-12-18T11:46:00;-3.20;99.90
12872;DHT22;6504;53.766;9.626;2022-12-18T11:48:34;-3.20;99.90
12872;DHT22;6504;53.766;9.626;2022-12-18T11:51:13;-3.20;99.90
12872;DHT22;6504;53.766;9.626;2022-12-18T11:53:42;-3.10;99.90
12872;DHT22;6504;53.766;9.626;2022-12-18T11:56:29;-3.10;99.90
12872;DHT22;6504;53.766;9.626;2022-12-18T11:59:06;-3.00;99.90
12872;DHT22;6504;53.766;9.626;2022-12-18T12:01:48;-3.00;99.90
12872;DHT22;6504;53.766;9.626;2022-12-18T12:04:37;-3.00;99.90
12872;DHT22;6504;53.766;9.626;2022-12-18T12:07:18;-2.90;99.90
12872;DHT22;6504;53.766;9.626;2022-12-18T12:09:55;-2.90;99.90
12872;DHT22;6504;53.766;9.626;2022-12-18T12:12:36;-2.90;99.90
12872;DHT22;6504;53.766;9.626;2022-12-18T12:15:24;-2.80;99.90
12872;DHT22;6504;53.766;9.626;2022-12-18T12:18:03;-2.80;99.90
12872;DHT22;6504;53.766;9.626;2022-12-18T12:20:46;-2.70;99.90
12872;DHT22;6504;53.766;9.626;2022-12-18T12:23:20;-2.70;99.90
12872;DHT22;6504;53.766;9.626;2022-12-18T12:25:58;-2.70;99.90
12872;DHT22;6504;53.766;9.626;2022-12-18T12:28:47;-2.70;99.90
12872;DHT22;6504;53.766;9.626;2022-12-18T12:31:26;-2.60;99.90
12872;DHT22;6504;53.766;9.626;2022-12-18T12:34:01;-2.60;99.90
12872;DHT22;6504;53.766;9.626;2022-12-18T12:36:38;-2.60;99.90
12872;DHT22;6504;53.766;9.626;2022-12-18T12:39:11;-2.60;99.90
12872;DHT22;6504;53.766;9.626;2022-12-18T12:41:42;-2.60;99.90
12872;DHT22;6504;53.766;9.626;2022-12-18T12:44:33;-2.50;99.90
12872;DHT22;6504;53.766;9.626;2022-12-18T12:47:11;-2.50;99.90
12872;DHT22;6504;53.766;9.626;2022-12-18T12:49:44;-2.50;99.90
12872;DHT22;6504;53.766;9.626;2022-12-18T12:52:21;-2.50;99.90
12872;DHT22;6504;53.766;9.626;2022-12-18T12:54:52;-2.50;99.90
12872;DHT22;6504;53.766;9.626;2022-12-18T12:57:22;-2.50;99.90
12872;DHT22;6504;53.766;9.626;2022-12-18T13:00:00;-2.40;99.90
12872;DHT22;6504;53.766;9.626;2022-12-18T13:02:35;-2.40;99.90
12872;DHT22;6504;53.766;9.626;2022-12-18T13:05:11;-2.40;99.90
12872;DHT22;6504;53.766;9.626;2022-12-18T13:07:49;-2.40;99.90
12872;DHT22;6504;53.766;9.626;2022-12-18T13:10:30;-2.40;99.90
12872;DHT22;6504;53.766;9.626;2022-12-18T13:13:00;-2.30;99.90
12872;DHT22;6504;53.766;9.626;2022-12-18T13:15:40;-2.30;99.90
12872;DHT22;6504;53.766;9.626;2022-12-18T13:18:19;-2.30;99.90
12872;DHT22;6504;53.766;9.626;2022-12-18T13:20:51;-2.30;99.90
12872;DHT22;6504;53.766;9.626;2022-12-18T13:23:34;-2.30;99.90
12872;DHT22;6504;53.766;9.626;2022-12-18T13:26:29;-2.30;99.90
12872;DHT22;6504;53.766;9.626;2022-12-18T13:28:59;-2.30;99.90
12872;DHT22;6504;53.766;9.626;2022-12-18T13:31:59;-2.30;99.90
12872;DHT22;6504;53.766;9.626;2022-12-18T13:34:29;-2.20;99.90
12872;DHT22;6504;53.766;9.626;2022-12-18T13:40:00;-2.30;99.90
12872;DHT22;6504;53.766;9.626;2022-12-18T13:42:38;-2.30;99.90
12872;DHT22;6504;53.766;9.626;2022-12-18T13:45:59;-2.30;99.90
12872;DHT22;6504;53.766;9.626;2022-12-18T13:48:31;-2.20;99.90
12872;DHT22;6504;53.766;9.626;2022-12-18T13:51:02;-2.30;99.90
12872;DHT22;6504;53.766;9.626;2022-12-18T13:53:35;-2.30;99.90
12872;DHT22;6504;53.766;9.626;2022-12-18T13:56:07;-2.30;99.90
12872;DHT22;6504;53.766;9.626;2022-12-18T13:58:35;-2.30;99.90
12872;DHT22;6504;53.766;9.626;2022-12-18T14:01:04;-2.30;99.90
12872;DHT22;6504;53.766;9.626;2022-12-18T14:03:35;-2.30;99.90
12872;DHT22;6504;53.766;9.626;2022-12-18T14:06:05;-2.30;99.90
12872;DHT22;6504;53.766;9.626;2022-12-18T14:08:38;-2.20;99.90
12872;DHT22;6504;53.766;9.626;2022-12-18T14:11:19;-2.30;99.90
12872;DHT22;6504;53.766;9.626;2022-12-18T14:13:49;-2.30;99.90
12872;DHT22;6504;53.766;9.626;2022-12-18T14:16:17;-2.30;99.90
12872;DHT22;6504;53.766;9.626;2022-12-18T14:18:50;-2.30;99.90
12872;DHT22;6504;53.766;9.626;2022-12-18T14:21:26;-2.30;99.90
12872;DHT22;6504;53.766;9.626;2022-12-18T14:24:12;-2.30;99.90
12872;DHT22;6504;53.766;9.626;2022-12-18T14:26:44;-2.30;99.90
12872;DHT22;6504;53.766;9.626;2022-12-18T14:29:24;-2.20;99.90
12872;DHT22;6504;53.766;9.626;2022-12-18T14:32:06;-2.20;99.90
12872;DHT22;6504;53.766;9.626;2022-12-18T14:34:45;-2.30;99.90
12872;DHT22;6504;53.766;9.626;2022-12-18T14:37:15;-2.30;99.90
12872;DHT22;6504;53.766;9.626;2022-12-18T14:39:53;-2.30;99.90
12872;DHT22;6504;53.766;9.626;2022-12-18T14:42:21;-2.30;99.90
12872;DHT22;6504;53.766;9.626;2022-12-18T14:44:50;-2.30;99.90
12872;DHT22;6504;53.766;9.626;2022-12-18T14:47:38;-2.30;99.90
12872;DHT22;6504;53.766;9.626;2022-12-18T14:50:13;-2.40;99.90
12872;DHT22;6504;53.766;9.626;2022-12-18T14:52:41;-2.40;99.90
12872;DHT22;6504;53.766;9.626;2022-12-18T14:55:15;-2.40;99.90
12872;DHT22;6504;53.766;9.626;2022-12-18T14:57:43;-2.40;99.90
12872;DHT22;6504;53.766;9.626;2022-12-18T15:00:17;-2.50;99.90
12872;DHT22;6504;53.766;9.626;2022-12-18T15:02:46;-2.50;99.90
12872;DHT22;6504;53.766;9.626;2022-12-18T15:05:19;-2.50;99.90
12872;DHT22;6504;53.766;9.626;2022-12-18T15:07:50;-2.60;99.90
12872;DHT22;6504;53.766;9.626;2022-12-18T15:10:20;-2.60;99.90
12872;DHT22;6504;53.766;9.626;2022-12-18T15:12:49;-2.70;99.90
12872;DHT22;6504;53.766;9.626;2022-12-18T15:15:48;-2.70;99.90
12872;DHT22;6504;53.766;9.626;2022-12-18T15:18:18;-2.70;99.90
12872;DHT22;6504;53.766;9.626;2022-12-18T15:20:51;-2.80;99.90
12872;DHT22;6504;53.766;9.626;2022-12-18T15:23:22;-2.80;99.90
12872;DHT22;6504;53.766;9.626;2022-12-18T15:25:56;-2.80;99.90
12872;DHT22;6504;53.766;9.626;2022-12-18T15:28:26;-2.90;99.90
12872;DHT22;6504;53.766;9.626;2022-12-18T15:30:59;-2.90;99.90
12872;DHT22;6504;53.766;9.626;2022-12-18T15:33:31;-3.00;99.90
12872;DHT22;6504;53.766;9.626;2022-12-18T15:36:03;-3.00;99.90
12872;DHT22;6504;53.766;9.626;2022-12-18T15:38:32;-3.00;99.90
12872;DHT22;6504;53.766;9.626;2022-12-18T15:41:01;-3.00;99.90
12872;DHT22;6504;53.766;9.626;2022-12-18T15:43:30;-3.00;99.90
12872;DHT22;6504;53.766;9.626;2022-12-18T15:46:04;-3.00;99.90
12872;DHT22;6504;53.766;9.626;2022-12-18T15:48:34;-3.00;99.90
12872;DHT22;6504;53.766;9.626;2022-12-18T15:51:08;-3.00;99.90
12872;DHT22;6504;53.766;9.626;2022-12-18T15:53:38;-3.00;99.90
12872;DHT22;6504;53.766;9.626;2022-12-18T15:56:09;-3.10;99.90
12872;DHT22;6504;53.766;9.626;2022-12-18T15:58:55;-3.10;99.90
12872;DHT22;6504;53.766;9.626;2022-12-18T16:01:27;-3.10;99.90
12872;DHT22;6504;53.766;9.626;2022-12-18T16:03:56;-3.10;99.90
12872;DHT22;6504;53.766;9.626;2022-12-18T16:06:26;-3.10;99.90
12872;DHT22;6504;53.766;9.626;2022-12-18T16:09:14;-3.10;99.90
12872;DHT22;6504;53.766;9.626;2022-12-18T16:11:48;-3.10;99.90
12872;DHT22;6504;53.766;9.626;2022-12-18T16:14:18;-3.20;99.90
12872;DHT22;6504;53.766;9.626;2022-12-18T16:16:50;-3.20;99.90
12872;DHT22;6504;53.766;9.626;2022-12-18T16:19:19;-3.20;99.90